Time;durP1;ratioP1;P1;durP2;ratioP2;P2;SDS_P1;SDS_P2;PMS_P1;PMS_P2;Temp;Humidity;BMP_temperature;BMP_pressure;BME280_temperature;BME280_humidity;BME280_pressure;Samples;Min_cycle;Max_cycle;Signal;HPM_P1;HPM_P2
2021/01/03 00:01:26;;;;;;;58.95;23.48;;;4.10;99.90;;;;;;5052442;28;20100;-90
2021/01/03 00:03:53;;;;;;;59.85;24.60;;;4.10;99.90;;;;;;5035059;28;20674;-91
2021/01/03 00:06:22;;;;;;;67.82;27.48;;;4.10;99.90;;;;;;5035114;28;20021;-93
2021/01/03 00:12:51;;;;;;;60.28;24.83;;;4.10;99.90;;;;;;5016349;28;20037;-90
2021/01/03 00:22:01;;;;;;;63.00;24.75;;;4.10;99.90;;;;;;4929085;28;20034;-91
2021/01/03 00:24:27;;;;;;;51.88;22.10;;;4.10;99.90;;;;;;4995090;28;20040;-92
2021/01/03 00:27:12;;;;;;;59.97;24.52;;;4.10;99.90;;;;;;4998097;28;20407;-92
2021/01/03 00:29:40;;;;;;;63.88;24.65;;;4.10;99.90;;;;;;4996918;28;20026;-91
2021/01/03 00:32:09;;;;;;;61.30;25.10;;;4.10;99.90;;;;;;5027850;28;20028;-91
2021/01/03 00:34:34;;;;;;;64.38;26.08;;;4.00;99.90;;;;;;5043336;28;20041;-92
2021/01/03 00:37:00;;;;;;;53.10;23.38;;;4.10;99.90;;;;;;5047002;28;20017;-94
2021/01/03 00:39:32;;;;;;;55.30;21.58;;;4.00;99.90;;;;;;5055867;28;20033;-92
2021/01/03 00:41:57;;;;;;;57.72;23.08;;;4.00;99.90;;;;;;5060953;28;20391;-88
2021/01/03 00:44:23;;;;;;;57.45;24.42;;;4.00;99.90;;;;;;5049394;28;20116;-90
2021/01/03 00:46:49;;;;;;;58.72;23.42;;;4.00;99.90;;;;;;5057910;28;20138;-93
2021/01/03 00:49:20;;;;;;;53.38;22.17;;;4.00;99.90;;;;;;5062650;28;20036;-92
2021/01/03 00:51:46;;;;;;;52.63;22.83;;;4.00;99.90;;;;;;5040451;28;20504;-94
2021/01/03 00:54:12;;;;;;;55.35;23.80;;;4.00;99.90;;;;;;5033718;28;20040;-92
2021/01/03 00:56:38;;;;;;;53.72;23.58;;;4.00;99.90;;;;;;5033954;28;20037;-91
2021/01/03 00:59:03;;;;;;;51.70;21.85;;;4.00;99.90;;;;;;5034098;28;20036;-92
2021/01/03 01:01:29;;;;;;;49.10;20.30;;;4.00;99.90;;;;;;5051873;28;20040;-92
2021/01/03 01:03:55;;;;;;;51.95;21.50;;;4.00;99.90;;;;;;5054799;28;20063;-91
2021/01/03 01:06:24;;;;;;;56.05;24.00;;;4.00;99.90;;;;;;5047378;28;20728;-92
2021/01/03 01:08:52;;;;;;;63.08;24.05;;;4.00;99.90;;;;;;5035442;28;20484;-93
2021/01/03 01:11:22;;;;;;;70.28;26.48;;;4.00;99.90;;;;;;5035306;28;20032;-92
2021/01/03 01:14:05;;;;;;;62.13;25.63;;;4.00;99.90;;;;;;5059505;28;20074;-89
2021/01/03 01:16:32;;;;;;;;;;;4.00;99.90;;;;;;5063508;28;20035;-92
2021/01/03 01:19:08;;;;;;;67.18;24.85;;;4.00;99.90;;;;;;5059957;28;19912;-90
2021/01/03 01:21:39;;;;;;;62.33;25.42;;;3.90;99.90;;;;;;5061664;28;20112;-91
2021/01/03 01:24:12;;;;;;;60.67;23.67;;;3.90;99.90;;;;;;5061381;28;20399;-89
2021/01/03 01:26:43;;;;;;;67.18;26.00;;;4.00;99.90;;;;;;5058018;28;20112;-89
2021/01/03 01:29:08;;;;;;;67.07;26.83;;;4.00;99.90;;;;;;5056137;28;20056;-90
2021/01/03 01:31:34;;;;;;;62.05;24.40;;;3.90;99.90;;;;;;5055930;28;20036;-89
2021/01/03 01:34:00;;;;;;;69.32;26.27;;;3.90;99.90;;;;;;5055838;28;20059;-90
2021/01/03 01:36:25;;;;;;;80.47;32.22;;;4.00;99.90;;;;;;5055859;28;20543;-91
2021/01/03 01:38:51;;;;;;;85.13;32.40;;;3.90;99.90;;;;;;5056550;28;20060;-90
2021/01/03 01:41:17;;;;;;;70.40;28.67;;;3.80;99.90;;;;;;5055620;28;20028;-91
2021/01/03 01:43:42;;;;;;;64.57;27.55;;;3.80;99.90;;;;;;5055752;28;20029;-90
2021/01/03 01:46:17;;;;;;;66.72;25.50;;;3.80;99.90;;;;;;5055641;28;20151;-89
2021/01/03 01:48:46;;;;;;;63.45;24.88;;;3.90;99.90;;;;;;5055821;28;20021;-89
2021/01/03 01:51:34;;;;;;;55.72;23.25;;;3.80;99.90;;;;;;5054261;28;20056;-90
2021/01/03 01:54:10;;;;;;;57.28;24.30;;;3.80;99.90;;;;;;5054999;28;20020;-89
2021/01/03 01:56:53;;;;;;;57.35;24.83;;;3.90;99.90;;;;;;5054836;28;20032;-90
2021/01/03 01:59:58;;;;;;;54.55;24.60;;;3.80;99.90;;;;;;5055392;28;20118;-90
2021/01/03 02:02:34;;;;;;;59.00;25.95;;;3.80;99.90;;;;;;5055030;28;20033;-88
2021/01/03 02:05:12;;;;;;;52.33;24.27;;;3.90;99.90;;;;;;5055200;28;20387;-89
2021/01/03 02:07:54;;;;;;;51.05;21.92;;;3.80;99.90;;;;;;5055023;28;20120;-89
2021/01/03 02:10:34;;;;;;;53.10;23.25;;;3.90;99.90;;;;;;5057208;28;20029;-92
2021/01/03 02:13:27;;;;;;;54.30;22.65;;;3.90;99.90;;;;;;5057073;28;20068;-90
2021/01/03 02:15:57;;;;;;;54.50;24.75;;;3.90;99.90;;;;;;5078092;28;20032;-90
2021/01/03 02:18:23;;;;;;;53.33;23.85;;;3.90;99.90;;;;;;5077928;28;20009;-88
2021/01/03 02:21:09;;;;;;;53.60;23.88;;;3.80;99.90;;;;;;5078042;28;20063;-91
2021/01/03 02:24:13;;;;;;;52.95;23.15;;;3.80;99.90;;;;;;5071161;28;20120;-89
2021/01/03 02:29:41;;;;;;;49.00;22.42;;;3.80;99.90;;;;;;5061568;28;20072;-91
2021/01/03 02:32:08;;;;;;;48.88;20.58;;;3.80;99.90;;;;;;5054610;28;20078;-90
2021/01/03 02:34:42;;;;;;;44.90;19.67;;;3.80;99.90;;;;;;5054577;28;20020;-90
2021/01/03 02:37:14;;;;;;;47.83;20.52;;;3.80;99.90;;;;;;5054285;28;20025;-90
2021/01/03 02:40:15;;;;;;;50.42;22.45;;;3.80;99.90;;;;;;5054694;28;20021;-93
2021/01/03 02:42:42;;;;;;;52.58;22.33;;;3.80;99.90;;;;;;5054226;28;20057;-90
2021/01/03 02:45:15;;;;;;;52.35;21.80;;;3.80;99.90;;;;;;5054058;28;20400;-91
2021/01/03 02:47:41;;;;;;;54.03;23.17;;;3.80;99.90;;;;;;5054125;28;20021;-92
2021/01/03 02:50:09;;;;;;;46.38;20.83;;;3.80;99.90;;;;;;5053815;28;20536;-90
2021/01/03 02:52:38;;;;;;;52.90;22.27;;;3.80;99.90;;;;;;5053381;28;20056;-90
2021/01/03 02:55:07;;;;;;;48.88;21.48;;;3.80;99.90;;;;;;5053845;28;20407;-90
2021/01/03 02:57:33;;;;;;;53.00;22.92;;;3.80;99.90;;;;;;5054185;28;20033;-90
2021/01/03 02:59:59;;;;;;;54.40;23.58;;;3.90;99.90;;;;;;5053876;28;20036;-91
2021/01/03 03:02:24;;;;;;;56.05;25.08;;;3.80;99.90;;;;;;5053791;28;20028;-91
2021/01/03 03:04:50;;;;;;;59.67;26.65;;;3.80;99.90;;;;;;5052868;28;20045;-89
2021/01/03 03:07:16;;;;;;;58.35;25.65;;;3.80;99.90;;;;;;5052701;28;20116;-90
2021/01/03 03:09:42;;;;;;;55.25;23.52;;;3.80;99.90;;;;;;5053470;28;20597;-91
2021/01/03 03:12:08;;;;;;;56.72;24.75;;;3.80;99.90;;;;;;5053433;28;20025;-90
2021/01/03 03:14:34;;;;;;;53.13;24.02;;;3.80;99.90;;;;;;5053540;28;20025;-90
2021/01/03 03:17:03;;;;;;;55.75;24.23;;;3.80;99.90;;;;;;5053402;28;20052;-90
2021/01/03 03:19:28;;;;;;;57.92;24.98;;;3.80;99.90;;;;;;5053528;28;20024;-89
2021/01/03 03:21:54;;;;;;;50.55;22.33;;;3.80;99.90;;;;;;5055140;28;20044;-91
2021/01/03 03:24:21;;;;;;;49.95;22.77;;;3.80;99.90;;;;;;5053871;28;20037;-91
2021/01/03 03:27:15;;;;;;;54.17;24.35;;;3.80;99.90;;;;;;5054055;28;20396;-92
2021/01/03 03:29:41;;;;;;;50.22;21.85;;;3.90;99.90;;;;;;5049903;28;20037;-91
2021/01/03 03:32:07;;;;;;;53.35;21.23;;;3.90;99.90;;;;;;5053841;28;20024;-91
2021/01/03 03:34:33;;;;;;;59.05;22.67;;;3.90;99.90;;;;;;5053927;28;20025;-92
2021/01/03 03:37:00;;;;;;;53.17;22.65;;;3.80;99.90;;;;;;5053395;28;20068;-91
2021/01/03 03:39:26;;;;;;;57.20;22.85;;;3.80;99.90;;;;;;5054093;28;20055;-92
2021/01/03 03:42:00;;;;;;;54.70;22.80;;;3.80;99.90;;;;;;5052776;28;20029;-92
2021/01/03 03:44:27;;;;;;;56.72;24.23;;;3.80;99.90;;;;;;5053751;28;20036;-92
2021/01/03 03:46:55;;;;;;;60.13;23.67;;;3.70;99.90;;;;;;5054024;28;20017;-94
2021/01/03 03:49:22;;;;;;;59.85;25.08;;;3.70;99.90;;;;;;5055554;28;20036;-92
2021/01/03 03:51:52;;;;;;;62.28;26.13;;;3.70;99.90;;;;;;5054605;28;20032;-92
2021/01/03 03:54:18;;;;;;;62.08;25.20;;;3.70;99.90;;;;;;5054007;28;20025;-92
2021/01/03 03:56:49;;;;;;;58.40;26.05;;;3.70;99.90;;;;;;5053476;28;20040;-91
2021/01/03 03:59:15;;;;;;;62.88;26.23;;;3.70;99.90;;;;;;5053431;28;20086;-91
2021/01/03 04:01:40;;;;;;;62.88;25.70;;;3.70;99.90;;;;;;5053213;28;20029;-91
2021/01/03 04:04:06;;;;;;;61.25;25.35;;;3.70;99.90;;;;;;5052451;28;20033;-90
2021/01/03 04:06:31;;;;;;;67.68;26.85;;;3.70;99.90;;;;;;5052873;28;20075;-91
2021/01/03 04:08:57;;;;;;;75.40;28.60;;;3.70;99.90;;;;;;5053033;28;20029;-91
2021/01/03 04:11:22;;;;;;;70.68;30.48;;;3.70;99.90;;;;;;5053959;28;20479;-91
2021/01/03 04:13:49;;;;;;;70.05;29.35;;;3.70;99.90;;;;;;5057699;28;20021;-92
2021/01/03 04:16:14;;;;;;;69.90;28.35;;;3.70;99.90;;;;;;5054693;28;20071;-92
2021/01/03 04:18:40;;;;;;;73.30;31.38;;;3.70;99.90;;;;;;5053592;28;20033;-90
2021/01/03 04:21:06;;;;;;;71.25;32.05;;;3.70;99.90;;;;;;5058078;28;20057;-90
2021/01/03 04:23:32;;;;;;;68.03;27.90;;;3.70;99.90;;;;;;5058338;28;20055;-92
2021/01/03 04:26:00;;;;;;;78.30;31.05;;;3.70;99.90;;;;;;5037726;28;20037;-93
2021/01/03 04:33:22;;;;;;;75.95;29.02;;;3.70;99.90;;;;;;5055097;28;20049;-93
2021/01/03 04:35:51;;;;;;;78.78;31.90;;;3.70;99.90;;;;;;5056402;28;20406;-92
2021/01/03 04:38:17;;;;;;;69.60;28.73;;;3.70;99.90;;;;;;5056453;28;20028;-92
2021/01/03 04:40:54;;;;;;;70.03;30.23;;;3.70;99.90;;;;;;5057996;28;20031;-93
2021/01/03 04:43:21;;;;;;;69.32;26.92;;;3.70;99.90;;;;;;5059321;28;20152;-92
2021/01/03 04:46:02;;;;;;;66.15;27.60;;;3.70;99.90;;;;;;5058787;28;20032;-93
2021/01/03 04:48:59;;;;;;;78.85;32.45;;;3.70;99.90;;;;;;5062368;28;20052;-91
2021/01/03 04:51:46;;;;;;;76.90;29.70;;;3.70;99.90;;;;;;5062057;28;20033;-92
2021/01/03 04:54:19;;;;;;;71.25;29.27;;;3.70;99.90;;;;;;5063233;28;20021;-91
2021/01/03 04:56:54;;;;;;;73.45;30.70;;;3.70;99.90;;;;;;5044139;28;20040;-92
2021/01/03 04:59:43;;;;;;;72.40;28.30;;;3.70;99.90;;;;;;5057878;28;20067;-92
2021/01/03 05:02:25;;;;;;;74.65;28.20;;;3.70;99.90;;;;;;5056852;28;20033;-92
2021/01/03 05:05:11;;;;;;;66.57;28.35;;;3.60;99.90;;;;;;5055856;28;20060;-91
2021/01/03 05:07:43;;;;;;;70.28;27.23;;;3.70;99.90;;;;;;5056281;28;20479;-90
2021/01/03 05:10:16;;;;;;;73.63;29.67;;;3.70;99.90;;;;;;5056379;28;20055;-93
2021/01/03 05:12:48;;;;;;;74.72;30.63;;;3.60;99.90;;;;;;5056308;28;20036;-91
2021/01/03 05:15:23;;;;;;;68.43;27.38;;;3.70;99.90;;;;;;5056497;28;20026;-93
2021/01/03 05:17:49;;;;;;;75.47;29.65;;;3.70;99.90;;;;;;5056326;28;20125;-91
2021/01/03 05:20:15;;;;;;;69.55;28.73;;;3.70;99.90;;;;;;5056454;28;20057;-91
2021/01/03 05:22:40;;;;;;;71.00;27.80;;;3.70;99.90;;;;;;5056320;28;20483;-90
2021/01/03 05:25:09;;;;;;;68.88;29.52;;;3.70;99.90;;;;;;5056145;28;20045;-92
2021/01/03 05:27:35;;;;;;;75.30;29.35;;;3.70;99.90;;;;;;5056237;28;20029;-90
2021/01/03 05:30:26;;;;;;;62.80;26.50;;;3.70;99.90;;;;;;5056576;28;20035;-88
2021/01/03 05:32:52;;;;;;;71.57;30.20;;;3.70;99.90;;;;;;5055296;28;20542;-89
2021/01/03 05:35:30;;;;;;;71.75;28.83;;;3.70;99.90;;;;;;5055328;28;20090;-92
2021/01/03 05:38:02;;;;;;;75.03;31.50;;;3.70;99.90;;;;;;5054652;28;20028;-90
2021/01/03 05:40:47;;;;;;;67.13;26.63;;;3.70;99.90;;;;;;5055340;28;20025;-89
2021/01/03 05:43:26;;;;;;;70.78;29.83;;;3.70;99.90;;;;;;5055415;28;20017;-90
2021/01/03 05:46:04;;;;;;;70.80;30.88;;;3.70;99.90;;;;;;5055624;28;20037;-92
2021/01/03 05:49:00;;;;;;;72.72;31.48;;;3.70;99.90;;;;;;5055505;28;20017;-92
2021/01/03 05:51:49;;;;;;;72.25;31.30;;;3.70;99.90;;;;;;5050919;28;20033;-91
2021/01/03 05:54:36;;;;;;;68.18;30.25;;;3.70;99.90;;;;;;5055146;28;20545;-90
2021/01/03 05:57:10;;;;;;;76.80;32.33;;;3.70;99.90;;;;;;5055329;28;20471;-91
2021/01/03 05:59:39;;;;;;;75.85;30.85;;;3.70;99.90;;;;;;5055167;28;20438;-90
2021/01/03 06:02:12;;;;;;;81.47;34.83;;;3.70;99.90;;;;;;5054831;28;20029;-89
2021/01/03 06:04:39;;;;;;;82.25;34.50;;;3.70;99.90;;;;;;5054686;28;20037;-89
2021/01/03 06:07:14;;;;;;;79.80;34.75;;;3.70;99.90;;;;;;5055397;28;20455;-89
2021/01/03 06:09:41;;;;;;;74.72;33.33;;;3.70;99.90;;;;;;5054618;28;20025;-91
2021/01/03 06:12:16;;;;;;;69.75;31.00;;;3.70;99.90;;;;;;5054533;28;20021;-91
2021/01/03 06:14:48;;;;;;;71.10;31.85;;;3.70;99.90;;;;;;5054646;28;20029;-91
2021/01/03 06:17:16;;;;;;;71.38;31.90;;;3.70;99.90;;;;;;5054873;28;20036;-90
2021/01/03 06:19:58;;;;;;;72.07;32.67;;;3.70;99.90;;;;;;5054544;28;20563;-91
2021/01/03 06:22:43;;;;;;;69.55;30.67;;;3.70;99.90;;;;;;5054895;28;20072;-92
2021/01/03 06:25:27;;;;;;;66.38;29.20;;;3.70;99.90;;;;;;5054545;28;20032;-89
2021/01/03 06:27:58;;;;;;;58.55;27.08;;;3.70;99.90;;;;;;5054221;28;20025;-91
2021/01/03 06:30:29;;;;;;;71.45;29.90;;;3.70;99.90;;;;;;5053560;28;20037;-90
2021/01/03 06:33:03;;;;;;;67.10;28.83;;;3.70;99.90;;;;;;5054138;28;20041;-90
2021/01/03 06:35:47;;;;;;;74.13;31.15;;;3.80;99.90;;;;;;5054621;28;20024;-90
2021/01/03 06:38:31;;;;;;;66.18;29.73;;;3.70;99.90;;;;;;5054423;28;20025;-92
2021/01/03 06:41:24;;;;;;;70.65;32.30;;;3.70;99.90;;;;;;5053960;28;20487;-90
2021/01/03 06:44:20;;;;;;;64.65;29.10;;;3.70;99.90;;;;;;5053725;28;20490;-90
2021/01/03 06:47:24;;;;;;;69.45;31.05;;;3.70;99.90;;;;;;5054709;28;20071;-92
2021/01/03 06:50:18;;;;;;;67.88;29.63;;;3.70;99.90;;;;;;5053843;28;20388;-90
2021/01/03 06:52:58;;;;;;;67.22;30.42;;;3.70;99.90;;;;;;5054295;28;20033;-90
2021/01/03 06:55:36;;;;;;;64.95;29.80;;;3.70;99.90;;;;;;5053976;28;20013;-90
2021/01/03 06:58:32;;;;;;;64.82;30.75;;;3.70;99.90;;;;;;5054592;28;20028;-90
2021/01/03 07:01:23;;;;;;;66.85;28.50;;;3.70;99.90;;;;;;5054403;28;20032;-90
2021/01/03 07:03:51;;;;;;;69.85;32.38;;;3.70;99.90;;;;;;5055457;28;20055;-89
2021/01/03 07:06:18;;;;;;;68.38;32.08;;;3.70;99.90;;;;;;5054469;28;20029;-89
2021/01/03 07:08:49;;;;;;;74.93;34.28;;;3.70;99.90;;;;;;5056112;28;20428;-91
2021/01/03 07:11:40;;;;;;;63.85;30.38;;;3.70;99.90;;;;;;5056111;28;20113;-90
2021/01/03 07:14:07;;;;;;;64.40;29.60;;;3.80;99.90;;;;;;5054715;28;20021;-92
2021/01/03 07:17:07;;;;;;;63.13;31.05;;;3.70;99.90;;;;;;5054810;28;20025;-91
2021/01/03 07:19:35;;;;;;;59.50;29.02;;;3.70;99.90;;;;;;5038340;28;20613;-91
2021/01/03 07:22:13;;;;;;;60.72;28.73;;;3.70;99.90;;;;;;5055266;28;20024;-89
2021/01/03 07:24:51;;;;;;;59.47;27.80;;;3.80;99.90;;;;;;5055993;28;20032;-91
2021/01/03 07:27:33;;;;;;;60.47;28.88;;;3.70;99.90;;;;;;5056964;28;20105;-90
2021/01/03 07:30:02;;;;;;;61.45;29.10;;;3.70;99.90;;;;;;5066897;28;20059;-89
2021/01/03 07:32:48;;;;;;;55.88;27.42;;;3.70;99.90;;;;;;5076426;28;20064;-90
2021/01/03 07:35:20;;;;;;;56.00;27.90;;;3.70;99.90;;;;;;5075412;28;20044;-90
2021/01/03 07:37:54;;;;;;;57.50;29.95;;;3.80;99.90;;;;;;5075747;28;20051;-88
2021/01/03 07:40:24;;;;;;;60.75;28.80;;;3.70;99.90;;;;;;5071397;28;20029;-91
2021/01/03 07:42:54;;;;;;;50.28;26.70;;;3.70;99.90;;;;;;5068740;28;20056;-89
2021/01/03 07:46:14;;;;;;;56.65;27.30;;;3.70;99.90;;;;;;5069962;28;20041;-92
2021/01/03 07:48:43;;;;;;;52.63;26.08;;;3.70;99.90;;;;;;4961364;28;20019;-90
2021/01/03 07:51:11;;;;;;;52.22;25.35;;;3.70;99.90;;;;;;5048641;28;20099;-90
2021/01/03 07:53:39;;;;;;;50.22;25.23;;;3.70;99.90;;;;;;5052901;28;20394;-89
2021/01/03 07:56:27;;;;;;;54.95;27.25;;;3.70;99.90;;;;;;5053398;28;20021;-91
2021/01/03 07:58:58;;;;;;;52.17;27.70;;;3.70;99.90;;;;;;5053429;28;20064;-90
2021/01/03 08:01:31;;;;;;;46.90;24.17;;;3.70;99.90;;;;;;5056228;28;20132;-90
2021/01/03 08:03:57;;;;;;;44.17;23.95;;;3.70;99.90;;;;;;5056993;28;20029;-90
2021/01/03 08:06:23;;;;;;;46.85;23.73;;;3.70;99.90;;;;;;5057683;28;20036;-90
2021/01/03 08:08:54;;;;;;;45.78;23.02;;;3.70;99.90;;;;;;5057179;28;20386;-89
2021/01/03 08:11:19;;;;;;;43.70;23.45;;;3.70;99.90;;;;;;5058347;28;20021;-90
2021/01/03 08:13:48;;;;;;;44.42;24.45;;;3.70;99.90;;;;;;5056782;28;20031;-90
2021/01/03 08:16:22;;;;;;;46.38;24.05;;;3.70;99.90;;;;;;5059784;28;20086;-92
2021/01/03 08:19:09;;;;;;;41.47;22.92;;;3.70;99.90;;;;;;5057595;28;20055;-90
2021/01/03 08:21:39;;;;;;;46.22;24.20;;;3.80;99.90;;;;;;5058204;28;20471;-89
2021/01/03 08:24:16;;;;;;;43.10;22.33;;;3.80;99.90;;;;;;5057139;28;20471;-91
2021/01/03 08:26:52;;;;;;;41.97;22.35;;;3.80;99.90;;;;;;5056219;28;20043;-90
2021/01/03 08:29:33;;;;;;;46.88;23.27;;;3.80;99.90;;;;;;5057215;28;20029;-90
2021/01/03 08:32:04;;;;;;;44.33;23.25;;;3.80;99.90;;;;;;5057626;28;20514;-90
2021/01/03 08:34:37;;;;;;;44.08;24.30;;;3.80;99.90;;;;;;5057474;28;20028;-91
2021/01/03 08:37:44;;;;;;;46.05;23.65;;;3.80;99.90;;;;;;5056543;28;20494;-91
2021/01/03 08:40:48;;;;;;;;;;;;;;;;;;;;;
2021/01/03 08:43:24;;;;;;;48.03;25.60;;;3.80;99.90;;;;;;5057170;28;20502;-91
2021/01/03 08:49:12;;;;;;;42.17;23.15;;;3.80;99.90;;;;;;5053654;28;20059;-91
2021/01/03 08:52:00;;;;;;;42.47;23.88;;;3.80;99.90;;;;;;5056342;28;20021;-93
2021/01/03 08:58:00;;;;;;;46.72;25.10;;;3.80;99.90;;;;;;5052470;28;20025;-92
2021/01/03 09:00:31;;;;;;;37.80;21.58;;;3.80;99.90;;;;;;5055988;28;20047;-92
2021/01/03 09:03:02;;;;;;;40.60;21.63;;;3.80;99.90;;;;;;5056177;28;20025;-90
2021/01/03 09:05:32;;;;;;;38.10;21.05;;;3.80;99.90;;;;;;5056304;28;20090;-90
2021/01/03 09:08:03;;;;;;;36.25;21.02;;;3.80;99.90;;;;;;5056389;28;20387;-92
2021/01/03 09:10:59;;;;;;;39.33;22.08;;;3.80;99.90;;;;;;5056356;28;20032;-93
2021/01/03 09:14:07;;;;;;;37.63;20.65;;;3.80;99.90;;;;;;5055588;28;20346;-94
2021/01/03 09:17:21;;;;;;;37.22;19.85;;;3.80;99.90;;;;;;5055005;28;20029;-93
2021/01/03 09:20:02;;;;;;;37.88;21.27;;;3.80;99.90;;;;;;5061805;22;20049;-89
2021/01/03 09:22:37;;;;;;;34.17;19.60;;;3.80;99.90;;;;;;5054166;28;20029;-91
2021/01/03 09:25:28;;;;;;;34.63;20.50;;;3.80;99.90;;;;;;5055469;28;20075;-90
2021/01/03 09:27:58;;;;;;;33.45;19.02;;;3.80;99.90;;;;;;5055399;28;20097;-89
2021/01/03 09:31:07;;;;;;;;;;;;;;;;;;;;;
2021/01/03 09:34:17;;;;;;;;;;;;;;;;;;;;;
2021/01/03 09:37:41;;;;;;;;;;;;;;;;;;;;;
2021/01/03 09:41:02;;;;;;;31.17;16.77;;;3.80;99.90;;;;;;5030122;28;20043;-89
2021/01/03 09:44:07;;;;;;;30.13;16.35;;;3.80;99.90;;;;;;4955419;29;20043;-91
2021/01/03 09:47:23;;;;;;;;;;;;;;;;;;;;;
2021/01/03 09:54:10;;;;;;;;;;;;;;;;;;;;;
2021/01/03 10:00:28;;;;;;;23.67;14.55;;;3.80;99.90;;;;;;5051879;28;20036;-90
2021/01/03 10:03:49;;;;;;;;;;;;;;;;;;;;;
2021/01/03 10:10:30;;;;;;;;;;;;;;;;;;;;;
2021/01/03 10:16:54;;;;;;;20.08;12.15;;;3.90;99.90;;;;;;4991132;28;20062;-92
2021/01/03 10:19:46;;;;;;;;;;;;;;;;;;;;;
2021/01/03 10:22:41;;;;;;;22.25;13.85;;;3.90;99.90;;;;;;4992559;28;20042;-92
2021/01/03 10:25:35;;;;;;;18.85;11.25;;;3.90;99.90;;;;;;4992516;28;20041;-91
2021/01/03 10:28:27;;;;;;;20.10;12.33;;;3.90;99.90;;;;;;4974957;28;20131;-92
2021/01/03 10:31:19;;;;;;;22.65;12.88;;;3.90;99.90;;;;;;4977057;28;20057;-90
2021/01/03 10:37:15;;;;;;;;;;;;;;;;;;;;;
2021/01/03 10:39:52;;;;;;;;;;;;;;;;;;;;;
2021/01/03 10:42:24;;;;;;;19.73;11.93;;;4.00;99.90;;;;;;5052950;28;20033;-89
2021/01/03 10:44:57;;;;;;;20.65;12.93;;;4.00;99.90;;;;;;5051916;28;20028;-89
2021/01/03 10:47:43;;;;;;;21.35;12.55;;;4.00;99.90;;;;;;5052635;28;20029;-90
2021/01/03 10:50:25;;;;;;;18.70;11.50;;;4.10;99.90;;;;;;5039428;28;20112;-90
2021/01/03 10:53:22;;;;;;;;;;;;;;;;;;;;;
2021/01/03 10:56:03;;;;;;;20.88;11.77;;;4.10;99.90;;;;;;5039074;28;20031;-90
2021/01/03 10:58:45;;;;;;;18.58;11.05;;;4.10;99.90;;;;;;5052891;28;20032;-90
2021/01/03 11:01:45;;;;;;;18.80;11.02;;;4.20;99.90;;;;;;5050094;28;20029;-89
2021/01/03 11:04:34;;;;;;;19.33;11.02;;;4.10;99.90;;;;;;5032345;28;20094;-89
2021/01/03 11:07:40;;;;;;;;;;;;;;;;;;;;;
2021/01/03 11:10:41;;;;;;;19.00;11.45;;;4.10;99.90;;;;;;5041905;28;20028;-91
2021/01/03 11:13:46;;;;;;;;;;;;;;;;;;;;;
2021/01/03 11:16:55;;;;;;;;;;;;;;;;;;;;;
2021/01/03 11:23:15;;;;;;;;;;;;;;;;;;;;;
2021/01/03 11:28:58;;;;;;;15.85;9.52;;;4.10;99.90;;;;;;5034536;28;20112;-89
2021/01/03 11:35:39;;;;;;;15.20;10.13;;;4.10;99.90;;;;;;4987228;28;20180;-90
2021/01/03 11:41:48;;;;;;;14.02;9.40;;;4.20;99.90;;;;;;5031643;28;20121;-90
2021/01/03 11:44:53;;;;;;;14.40;8.73;;;4.20;99.90;;;;;;5032963;28;20025;-91
2021/01/03 11:53:50;;;;;;;16.42;9.18;;;4.20;99.90;;;;;;5033939;28;20041;-90
2021/01/03 11:56:31;;;;;;;13.98;8.63;;;4.20;99.90;;;;;;5034499;28;20032;-90
2021/01/03 11:59:14;;;;;;;;;;;;;;;;;;;;;
2021/01/03 12:01:42;;;;;;;16.95;9.98;;;4.20;99.90;;;;;;5035406;28;20032;-88
2021/01/03 12:05:17;;;;;;;16.50;10.27;;;4.20;99.90;;;;;;5017588;28;20049;-89
2021/01/03 12:07:51;;;;;;;;;;;4.20;99.90;;;;;;5015906;28;20061;-91
2021/01/03 12:14:00;;;;;;;17.40;9.93;;;4.10;99.90;;;;;;5013015;28;20026;-90
2021/01/03 12:17:35;;;;;;;;;;;;;;;;;;;;;
2021/01/03 12:19:39;;;;;;;18.15;9.88;;;4.10;99.90;;;;;;5019205;28;20064;-90
2021/01/03 12:29:21;;;;;;;21.88;11.23;;;4.20;99.90;;;;;;4916132;29;20468;-91
2021/01/03 12:39:49;;;;;;;20.88;11.85;;;4.20;99.90;;;;;;4952703;28;20535;-91
2021/01/03 12:42:22;;;;;;;23.63;12.75;;;4.20;99.90;;;;;;4972635;28;20554;-90
2021/01/03 12:49:04;;;;;;;25.75;14.10;;;4.30;99.90;;;;;;4971453;28;20039;-90
2021/01/03 12:58:33;;;;;;;26.48;14.95;;;4.50;99.90;;;;;;4925141;29;20043;-91
2021/01/03 13:01:34;;;;;;;30.83;17.13;;;4.60;99.90;;;;;;4930136;29;20090;-91
2021/01/03 13:11:13;;;;;;;27.20;15.88;;;5.00;99.90;;;;;;4951877;28;20050;-90
2021/01/03 13:18:34;;;;;;;;;;;;;;;;;;;;;
2021/01/03 13:21:08;;;;;;;28.95;15.23;;;4.80;99.90;;;;;;4897272;29;20084;-92
2021/01/03 13:24:06;;;;;;;28.75;16.35;;;4.70;99.90;;;;;;4904135;29;20495;-89
2021/01/03 13:27:38;;;;;;;;;;;;;;;;;;;;;
2021/01/03 13:30:13;;;;;;;25.38;15.70;;;4.60;99.90;;;;;;5021646;28;20033;-91
2021/01/03 13:33:17;;;;;;;26.25;15.65;;;4.60;99.90;;;;;;5052820;28;20488;-92
2021/01/03 13:36:35;;;;;;;;;;;;;;;;;;;;;
2021/01/03 13:39:59;;;;;;;25.17;14.98;;;4.50;99.90;;;;;;5031065;28;20029;-90
2021/01/03 13:43:03;;;;;;;23.65;14.13;;;4.50;99.90;;;;;;5029238;28;20390;-91
2021/01/03 13:46:01;;;;;;;22.23;12.47;;;4.50;99.90;;;;;;5043415;28;20140;-92
2021/01/03 13:52:19;;;;;;;28.35;14.55;;;4.40;99.90;;;;;;5030795;28;20041;-91
2021/01/03 13:58:56;;;;;;;;;;;;;;;;;;;;;
2021/01/03 14:01:36;;;;;;;;;;;;;;;;;;;;;
2021/01/03 14:04:12;;;;;;;19.77;11.07;;;4.40;99.90;;;;;;5054075;28;20029;-91
2021/01/03 14:07:14;;;;;;;;;;;;;;;;;;;;;
2021/01/03 14:10:27;;;;;;;22.00;12.00;;;4.40;99.90;;;;;;5045389;28;20025;-91
2021/01/03 14:17:00;;;;;;;17.83;10.98;;;4.40;99.90;;;;;;4964768;28;20054;-94
2021/01/03 14:20:10;;;;;;;;;;;;;;;;;;;;;
2021/01/03 14:43:50;;;;;;;21.00;11.80;;;4.40;99.90;;;;;;4879443;29;20154;-94
2021/01/03 14:47:14;;;;;;;;;;;;;;;;;;;;;
2021/01/03 14:57:14;;;;;;;14.68;9.25;;;4.30;99.90;;;;;;4880076;29;20033;-93
2021/01/03 15:07:28;;;;;;;;;;;;;;;;;;;;;
2021/01/03 15:17:31;;;;;;;16.67;9.05;;;4.20;99.90;;;;;;4931823;29;20032;-93
2021/01/03 15:24:52;;;;;;;12.98;8.30;;;4.20;99.90;;;;;;4886747;29;20037;-94
2021/01/03 15:28:23;;;;;;;;;;;;;;;;;;;;;
2021/01/03 15:31:48;;;;;;;12.35;7.70;;;4.20;99.90;;;;;;4852535;29;20124;-93
2021/01/03 15:38:29;;;;;;;13.40;7.78;;;4.10;99.90;;;;;;4851230;29;20034;-94
2021/01/03 15:48:31;;;;;;;;;;;;;;;;;;;;;
2021/01/03 16:26:22;;;;;;;;;;;;;;;;;;;;;
2021/01/03 16:29:29;;;;;;;;;;;;;;;;;;;;;
2021/01/03 16:40:30;;;;;;;;;;;;;;;;;;;;;
2021/01/03 16:51:00;;;;;;;;;;;;;;;;;;;;;
2021/01/03 17:01:23;;;;;;;;;;;;;;;;;;;;;
2021/01/03 17:04:09;;;;;;;10.27;6.10;;;3.80;99.90;;;;;;4808009;29;20063;-93
2021/01/03 17:43:53;;;;;;;11.05;7.60;;;3.80;99.90;;;;;;4996992;28;20122;-95
2021/01/03 17:54:45;;;;;;;10.00;6.65;;;3.90;99.90;;;;;;4903238;29;20038;-93
2021/01/03 17:57:24;;;;;;;;;;;;;;;;;;;;;
2021/01/03 18:04:13;;;;;;;;;;;;;;;;;;;;;
2021/01/03 18:07:57;;;;;;;10.57;7.63;;;3.90;99.90;;;;;;4898206;29;20497;-93
2021/01/03 18:10:25;;;;;;;11.68;8.07;;;3.80;99.90;;;;;;4869325;29;20036;-93
2021/01/03 18:16:40;;;;;;;12.30;7.65;;;3.80;99.90;;;;;;4784884;29;20036;-94
2021/01/03 18:20:06;;;;;;;;;;;;;;;;;;;;;
2021/01/03 18:23:40;;;;;;;13.65;8.85;;;3.80;99.90;;;;;;4768162;29;20492;-93
2021/01/03 18:26:27;;;;;;;11.77;8.27;;;3.80;99.90;;;;;;4735020;30;20072;-95
2021/01/03 18:36:19;;;;;;;11.20;7.47;;;3.80;99.90;;;;;;4711667;30;20090;-95
2021/01/03 19:04:24;;;;;;;9.30;6.13;;;3.70;99.90;;;;;;4751629;30;20052;-92
2021/01/03 19:18:21;;;;;;;11.05;7.13;;;3.60;99.90;;;;;;4757134;30;20048;-93
2021/01/03 19:24:00;;;;;;;10.98;6.82;;;3.60;99.90;;;;;;4751781;30;20048;-93
2021/01/03 19:27:21;;;;;;;9.00;6.57;;;3.60;99.90;;;;;;4732836;30;20414;-91
2021/01/03 19:42:51;;;;;;;11.30;7.70;;;3.50;99.90;;;;;;5059517;28;20933;-93
2021/01/03 19:52:50;;;;;;;9.68;6.90;;;3.40;99.90;;;;;;5072601;28;20029;-91
2021/01/03 19:59:15;;;;;;;;;;;;;;;;;;;;;
2021/01/03 20:02:14;;;;;;;9.93;7.03;;;3.30;99.90;;;;;;4958052;28;20027;-92
2021/01/03 20:09:10;;;;;;;;;;;;;;;;;;;;;
2021/01/03 20:11:59;;;;;;;9.45;7.00;;;3.30;99.90;;;;;;4943471;29;20042;-93
2021/01/03 20:17:38;;;;;;;10.30;6.65;;;3.30;99.90;;;;;;4899802;29;20077;-92
2021/01/03 20:21:00;;;;;;;12.45;7.07;;;3.30;99.90;;;;;;4892154;29;20044;-93
2021/01/03 20:27:49;;;;;;;;;;;;;;;;;;;;;
2021/01/03 20:30:47;;;;;;;;;;;;;;;;;;;;;
2021/01/03 20:38:06;;;;;;;10.65;7.32;;;3.30;99.90;;;;;;4849346;29;20037;-94
2021/01/03 20:43:55;;;;;;;8.90;6.22;;;3.30;99.90;;;;;;5053152;28;20078;-93
2021/01/03 20:47:09;;;;;;;;;;;;;;;;;;;;;
2021/01/03 20:50:19;;;;;;;10.68;6.95;;;3.30;99.90;;;;;;5075217;28;20032;-93
2021/01/03 20:53:08;;;;;;;12.43;8.25;;;3.40;99.90;;;;;;5065150;28;20033;-92
2021/01/03 20:55:57;;;;;;;10.25;7.13;;;3.30;99.90;;;;;;4996791;28;20041;-93
2021/01/03 21:24:05;;;;;;;10.82;8.18;;;3.40;99.90;;;;;;4817132;29;20083;-93